Time;durP1;ratioP1;P1;durP2;ratioP2;P2;SDS_P1;SDS_P2;PMS_P1;PMS_P2;Temp;Humidity;BMP_temperature;BMP_pressure;BME280_temperature;BME280_humidity;BME280_pressure;Samples;Min_cycle;Max_cycle;Signal;HPM_P1;HPM_P2
2023/06/12 00:00:11;;;;;;;10.55;5.80;;;;;;;;;;2039266;29;20051;-88
2023/06/12 00:01:16;;;;;;;9.63;5.55;;;;;;;;;;2039290;29;20027;-89
2023/06/12 00:02:17;;;;;;;14.30;5.53;;;;;;;;;;2039713;29;20031;-88
2023/06/12 00:03:24;;;;;;;14.15;6.40;;;;;;;;;;2039171;29;20023;-91
2023/06/12 00:04:24;;;;;;;6.97;5.20;;;;;;;;;;2050156;28;20086;-90
2023/06/12 00:05:27;;;;;;;10.43;5.78;;;;;;;;;;2050908;28;20055;-89
2023/06/12 00:06:28;;;;;;;7.47;5.38;;;;;;;;;;2057412;28;20074;-91
2023/06/12 00:07:30;;;;;;;9.68;5.80;;;;;;;;;;2056759;28;20023;-91
2023/06/12 00:08:33;;;;;;;9.10;5.60;;;;;;;;;;2055809;28;20056;-90
2023/06/12 00:09:33;;;;;;;8.23;5.88;;;;;;;;;;2058031;28;20019;-90
2023/06/12 00:10:34;;;;;;;6.60;5.75;;;;;;;;;;2057320;29;20082;-90
2023/06/12 00:11:34;;;;;;;8.40;6.13;;;;;;;;;;2054267;29;20099;-87
2023/06/12 00:12:35;;;;;;;10.95;5.68;;;;;;;;;;2051250;29;20122;-88
2023/06/12 00:13:42;;;;;;;10.85;5.82;;;;;;;;;;2047590;29;20027;-87
2023/06/12 00:14:42;;;;;;;11.82;6.07;;;;;;;;;;2048394;28;20058;-88
2023/06/12 00:15:42;;;;;;;10.70;5.75;;;;;;;;;;2047143;29;20119;-88
2023/06/12 00:16:43;;;;;;;8.25;5.85;;;;;;;;;;2047295;28;20030;-90
2023/06/12 00:17:44;;;;;;;9.75;6.22;;;;;;;;;;2039186;29;20110;-90
2023/06/12 00:18:45;;;;;;;7.90;5.82;;;;;;;;;;2039133;29;20035;-89
2023/06/12 00:19:46;;;;;;;7.03;5.85;;;;;;;;;;2047376;29;20030;-89
2023/06/12 00:20:46;;;;;;;9.07;5.55;;;;;;;;;;2047758;28;20033;-90
2023/06/12 00:21:46;;;;;;;6.82;5.95;;;;;;;;;;2047235;29;20049;-89
2023/06/12 00:22:47;;;;;;;9.43;6.05;;;;;;;;;;2047106;29;20491;-90
2023/06/12 00:23:47;;;;;;;10.68;6.07;;;;;;;;;;2047720;29;20034;-90
2023/06/12 00:24:48;;;;;;;7.53;6.05;;;;;;;;;;2047078;29;20031;-90
2023/06/12 00:25:48;;;;;;;9.43;6.00;;;;;;;;;;2047153;28;20518;-90
2023/06/12 00:26:48;;;;;;;8.43;6.22;;;;;;;;;;2039219;29;20023;-90
2023/06/12 00:27:49;;;;;;;7.85;6.00;;;;;;;;;;2047604;29;20499;-90
2023/06/12 00:28:49;;;;;;;12.00;6.07;;;;;;;;;;2047325;29;20050;-91
2023/06/12 00:29:50;;;;;;;7.35;6.15;;;;;;;;;;2039368;29;20031;-90
2023/06/12 00:30:50;;;;;;;8.05;5.80;;;;;;;;;;2047498;29;20031;-90
2023/06/12 00:31:50;;;;;;;10.95;7.55;;;;;;;;;;2048718;29;20038;-89
2023/06/12 00:32:51;;;;;;;6.40;5.72;;;;;;;;;;2053739;29;20035;-90
2023/06/12 00:33:51;;;;;;;5.95;5.30;;;;;;;;;;2048033;29;20468;-90
2023/06/12 00:34:52;;;;;;;10.00;5.85;;;;;;;;;;2047528;29;20062;-90
2023/06/12 00:35:55;;;;;;;7.00;6.13;;;;;;;;;;2047713;29;20181;-90
2023/06/12 00:36:56;;;;;;;9.18;5.95;;;;;;;;;;2048333;29;20043;-94
2023/06/12 00:37:58;;;;;;;8.48;5.78;;;;;;;;;;2048288;29;20073;-94
2023/06/12 00:38:58;;;;;;;7.43;5.88;;;;;;;;;;2048064;29;20059;-93
2023/06/12 00:39:59;;;;;;;7.40;5.57;;;;;;;;;;2039595;29;20098;-92
2023/06/12 00:41:00;;;;;;;9.85;6.00;;;;;;;;;;2039704;29;20503;-91
2023/06/12 00:42:00;;;;;;;5.75;5.00;;;;;;;;;;2039827;29;20063;-93
2023/06/12 00:43:01;;;;;;;10.13;6.05;;;;;;;;;;2047636;29;20035;-92
2023/06/12 00:44:01;;;;;;;9.68;5.35;;;;;;;;;;2047584;29;20083;-93
2023/06/12 00:45:02;;;;;;;6.97;5.40;;;;;;;;;;2039735;29;20491;-92
2023/06/12 00:46:03;;;;;;;8.00;6.00;;;;;;;;;;2039708;29;20028;-92
2023/06/12 00:47:04;;;;;;;7.53;5.75;;;;;;;;;;2040124;29;20522;-93
2023/06/12 00:48:06;;;;;;;8.38;5.75;;;;;;;;;;2039731;29;20076;-94
2023/06/12 00:49:06;;;;;;;10.55;5.97;;;;;;;;;;2039914;29;20032;-94
2023/06/12 00:50:11;;;;;;;8.02;5.40;;;;;;;;;;2047791;29;20023;-94
2023/06/12 00:51:12;;;;;;;8.63;5.85;;;;;;;;;;2040402;29;20388;-93
2023/06/12 00:52:13;;;;;;;7.47;5.78;;;;;;;;;;2047654;29;20039;-94
2023/06/12 00:53:13;;;;;;;6.50;5.15;;;;;;;;;;2047669;29;20023;-93
2023/06/12 00:54:14;;;;;;;7.30;5.35;;;;;;;;;;2039683;29;20523;-94
2023/06/12 00:55:15;;;;;;;8.73;5.38;;;;;;;;;;2039771;29;20488;-94
2023/06/12 00:56:16;;;;;;;7.60;5.50;;;;;;;;;;2039743;29;20023;-94
2023/06/12 00:57:16;;;;;;;11.77;5.90;;;;;;;;;;2047583;29;20023;-94
2023/06/12 00:58:17;;;;;;;9.60;6.18;;;;;;;;;;2047714;29;20040;-93
2023/06/12 00:59:17;;;;;;;10.60;5.65;;;;;;;;;;2047844;29;20546;-94
2023/06/12 01:00:19;;;;;;;7.45;5.43;;;;;;;;;;2047760;29;20031;-93
2023/06/12 01:01:25;;;;;;;8.38;5.53;;;;;;;;;;2047287;29;20042;-93
2023/06/12 01:02:26;;;;;;;7.63;6.07;;;;;;;;;;2040389;29;20019;-93
2023/06/12 01:03:26;;;;;;;7.68;5.60;;;;;;;;;;2047275;29;20015;-93
2023/06/12 01:04:28;;;;;;;11.40;6.03;;;;;;;;;;2039387;29;20413;-93
2023/06/12 01:05:33;;;;;;;8.60;5.70;;;;;;;;;;2039407;29;20030;-93
2023/06/12 01:06:44;;;;;;;10.73;5.35;;;;;;;;;;2047569;29;20042;-94
2023/06/12 01:07:56;;;;;;;9.98;5.95;;;;;;;;;;2041108;29;20102;-93
2023/06/12 01:09:07;;;;;;;6.97;5.55;;;;;;;;;;2047504;29;20046;-93
2023/06/12 01:10:19;;;;;;;9.23;5.80;;;;;;;;;;2047392;29;20035;-92
2023/06/12 01:11:22;;;;;;;9.02;5.72;;;;;;;;;;2041248;29;20115;-93
2023/06/12 01:12:23;;;;;;;7.60;5.53;;;;;;;;;;2047593;29;20031;-93
2023/06/12 01:13:23;;;;;;;9.77;5.90;;;;;;;;;;2039434;29;20055;-93
2023/06/12 01:14:24;;;;;;;11.55;6.03;;;;;;;;;;2047734;29;20026;-93
2023/06/12 01:15:25;;;;;;;8.43;5.80;;;;;;;;;;2039933;29;20032;-93
2023/06/12 01:16:27;;;;;;;7.15;5.57;;;;;;;;;;2047863;28;20027;-93
2023/06/12 01:17:29;;;;;;;8.43;5.75;;;;;;;;;;2047952;28;20221;-92
2023/06/12 01:18:32;;;;;;;8.65;5.45;;;;;;;;;;2039494;29;20174;-93
2023/06/12 01:19:32;;;;;;;6.18;5.57;;;;;;;;;;2039883;29;20411;-93
2023/06/12 01:20:34;;;;;;;7.45;5.93;;;;;;;;;;2048078;29;20089;-94
2023/06/12 01:21:37;;;;;;;8.00;5.75;;;;;;;;;;2052769;29;20031;-91
2023/06/12 01:22:42;;;;;;;10.07;6.25;;;;;;;;;;2047227;29;20047;-93
2023/06/12 01:23:59;;;;;;;8.63;5.65;;;;;;;;;;2047732;29;20059;-92
2023/06/12 01:25:36;;;;;;;8.18;6.13;;;;;;;;;;2041506;29;20031;-93
2023/06/12 01:26:45;;;;;;;8.63;6.50;;;;;;;;;;2044001;29;20129;-93
2023/06/12 01:28:06;;;;;;;10.98;5.80;;;;;;;;;;2047312;28;20034;-92
2023/06/12 01:29:28;;;;;;;7.22;5.88;;;;;;;;;;2049075;29;20058;-92
2023/06/12 01:30:46;;;;;;;7.65;5.60;;;;;;;;;;2048901;29;20074;-93
2023/06/12 01:32:01;;;;;;;8.13;5.55;;;;;;;;;;2049123;29;20023;-92
2023/06/12 01:33:05;;;;;;;7.47;6.30;;;;;;;;;;2048872;29;20453;-93
2023/06/12 01:34:12;;;;;;;7.53;5.80;;;;;;;;;;1353540;28;10000629;-93
2023/06/12 01:35:23;;;;;;;7.72;5.65;;;;;;;;;;2048129;28;20027;-93
2023/06/12 01:36:27;;;;;;;7.95;5.70;;;;;;;;;;2048955;29;20027;-93
2023/06/12 01:37:58;;;;;;;8.25;5.40;;;;;;;;;;2041314;29;20080;-93
2023/06/12 01:39:00;;;;;;;7.53;5.65;;;;;;;;;;2031327;29;20575;-92
2023/06/12 01:40:08;;;;;;;6.93;5.90;;;;;;;;;;2040999;29;20400;-93
2023/06/12 01:41:09;;;;;;;9.43;5.53;;;;;;;;;;2042643;29;20098;-93
2023/06/12 01:42:10;;;;;;;8.48;5.30;;;;;;;;;;2041554;29;20024;-94
2023/06/12 01:43:11;;;;;;;8.48;5.82;;;;;;;;;;2049620;29;20039;-94
2023/06/12 01:44:11;;;;;;;7.88;6.00;;;;;;;;;;2049390;29;20507;-94
2023/06/12 01:45:12;;;;;;;7.63;5.28;;;;;;;;;;2049417;29;20102;-93
2023/06/12 01:46:12;;;;;;;7.97;6.07;;;;;;;;;;2049652;29;20426;-94
2023/06/12 01:47:13;;;;;;;8.13;5.70;;;;;;;;;;2049373;29;20102;-94
2023/06/12 01:48:14;;;;;;;9.07;5.93;;;;;;;;;;2049871;29;20027;-90
2023/06/12 01:50:22;;;;;;;10.27;5.88;;;;;;;;;;2050662;29;20321;-93
2023/06/12 01:51:23;;;;;;;8.98;5.75;;;;;;;;;;2052496;28;20027;-93
2023/06/12 01:52:24;;;;;;;9.38;5.50;;;;;;;;;;2051150;29;20038;-93
2023/06/12 01:53:24;;;;;;;6.10;5.50;;;;;;;;;;2043658;29;20039;-91
2023/06/12 01:54:25;;;;;;;8.27;5.75;;;;;;;;;;1700683;29;10003054;-93
2023/06/12 01:55:27;;;;;;;10.27;5.55;;;;;;;;;;2042401;29;20031;-94
2023/06/12 01:56:28;;;;;;;7.35;5.70;;;;;;;;;;2050762;29;20027;-94
2023/06/12 01:57:28;;;;;;;8.82;5.65;;;;;;;;;;2044661;29;20456;-90
2023/06/12 01:58:28;;;;;;;8.68;5.75;;;;;;;;;;2045719;29;20043;-91
2023/06/12 01:59:29;;;;;;;10.68;6.00;;;;;;;;;;2044850;29;20091;-90
2023/06/12 02:00:30;;;;;;;11.07;6.00;;;;;;;;;;2045090;29;20023;-91
2023/06/12 02:01:30;;;;;;;12.15;6.47;;;;;;;;;;1686193;28;10496145;-92
2023/06/12 02:02:33;;;;;;;7.80;5.20;;;;;;;;;;2042109;29;20558;-93
2023/06/12 02:03:36;;;;;;;6.75;5.57;;;;;;;;;;2042212;29;20476;-92
2023/06/12 02:04:37;;;;;;;8.32;5.80;;;;;;;;;;2049550;29;20027;-93
2023/06/12 02:05:38;;;;;;;8.40;5.35;;;;;;;;;;2049350;29;20151;-94
2023/06/12 02:06:38;;;;;;;8.20;6.03;;;;;;;;;;2041818;29;20027;-93
2023/06/12 02:07:39;;;;;;;7.63;5.85;;;;;;;;;;2041528;29;20027;-93
2023/06/12 02:08:39;;;;;;;7.10;5.63;;;;;;;;;;2041484;29;20032;-93
2023/06/12 02:09:40;;;;;;;8.65;5.78;;;;;;;;;;2041153;29;20144;-93
2023/06/12 02:10:40;;;;;;;8.60;5.22;;;;;;;;;;2054046;28;20435;-92
2023/06/12 02:11:42;;;;;;;7.97;5.80;;;;;;;;;;2058252;28;20023;-91
2023/06/12 02:12:43;;;;;;;5.90;5.30;;;;;;;;;;2051693;29;20031;-93
2023/06/12 02:13:44;;;;;;;8.52;6.03;;;;;;;;;;2041351;29;20114;-93
2023/06/12 02:14:45;;;;;;;8.45;5.30;;;;;;;;;;2041237;29;20024;-93
2023/06/12 02:15:46;;;;;;;6.95;5.75;;;;;;;;;;2041190;29;20028;-93
2023/06/12 02:16:47;;;;;;;9.30;6.15;;;;;;;;;;2040801;29;20122;-94
2023/06/12 02:17:48;;;;;;;9.25;6.07;;;;;;;;;;2040960;29;20031;-94
2023/06/12 02:18:48;;;;;;;8.55;5.95;;;;;;;;;;2040643;29;20071;-94
2023/06/12 02:19:49;;;;;;;7.63;5.88;;;;;;;;;;2041806;29;20063;-94
2023/06/12 02:20:49;;;;;;;11.30;5.75;;;;;;;;;;2059108;28;20071;-92
2023/06/12 02:21:50;;;;;;;7.35;5.68;;;;;;;;;;2059088;28;20038;-93
2023/06/12 02:22:50;;;;;;;9.65;5.68;;;;;;;;;;2059178;28;20037;-93
2023/06/12 02:23:51;;;;;;;7.88;5.50;;;;;;;;;;2049573;29;20103;-94
2023/06/12 02:24:51;;;;;;;9.20;5.65;;;;;;;;;;2050102;29;20051;-93
2023/06/12 02:25:51;;;;;;;7.65;5.68;;;;;;;;;;2046864;29;20442;-93
2023/06/12 02:26:52;;;;;;;7.00;5.85;;;;;;;;;;2042361;29;20031;-94
2023/06/12 02:27:52;;;;;;;6.75;5.97;;;;;;;;;;2050728;29;20054;-93
2023/06/12 02:29:07;;;;;;;7.63;5.68;;;;;;;;;;2041522;29;20200;-94
2023/06/12 02:30:08;;;;;;;7.32;5.28;;;;;;;;;;2043590;29;20032;-93
2023/06/12 02:31:08;;;;;;;7.65;5.43;;;;;;;;;;2040999;29;20456;-93
2023/06/12 02:32:09;;;;;;;8.15;5.75;;;;;;;;;;2040853;29;20039;-94
2023/06/12 02:33:12;;;;;;;8.82;5.63;;;;;;;;;;2040775;29;20062;-92
2023/06/12 02:34:13;;;;;;;7.53;5.88;;;;;;;;;;2041206;29;20042;-94
2023/06/12 02:35:14;;;;;;;6.63;5.30;;;;;;;;;;2048727;29;20023;-94
2023/06/12 02:36:14;;;;;;;7.32;6.22;;;;;;;;;;2048720;29;20024;-93
2023/06/12 02:37:16;;;;;;;8.07;6.47;;;;;;;;;;2049297;29;20051;-93
2023/06/12 02:38:16;;;;;;;6.40;5.28;;;;;;;;;;2049407;28;20067;-93
2023/06/12 02:39:17;;;;;;;8.38;6.28;;;;;;;;;;2052465;28;20063;-93
2023/06/12 02:40:18;;;;;;;8.10;5.78;;;;;;;;;;2058604;29;20030;-92
2023/06/12 02:41:18;;;;;;;7.43;6.20;;;;;;;;;;2050867;29;20048;-93
2023/06/12 02:42:19;;;;;;;8.10;6.03;;;;;;;;;;2058691;28;20115;-93
2023/06/12 02:43:19;;;;;;;9.18;5.90;;;;;;;;;;2058659;28;20019;-93
2023/06/12 02:44:19;;;;;;;8.23;5.57;;;;;;;;;;2057918;29;20035;-93
2023/06/12 02:45:25;;;;;;;8.52;5.75;;;;;;;;;;2042641;29;20050;-93
2023/06/12 02:46:26;;;;;;;8.13;5.68;;;;;;;;;;2041968;29;20433;-93
2023/06/12 02:47:26;;;;;;;8.35;5.97;;;;;;;;;;2042067;29;20299;-94
2023/06/12 02:48:28;;;;;;;6.75;5.53;;;;;;;;;;2041268;29;20027;-93
2023/06/12 02:49:30;;;;;;;6.75;5.70;;;;;;;;;;2041684;29;20023;-93
2023/06/12 02:50:30;;;;;;;9.32;5.78;;;;;;;;;;2041071;29;20798;-93
2023/06/12 02:51:31;;;;;;;7.60;5.68;;;;;;;;;;2048698;29;20035;-93
2023/06/12 02:52:31;;;;;;;8.65;6.13;;;;;;;;;;2048267;28;20031;-93
2023/06/12 02:53:31;;;;;;;6.95;5.60;;;;;;;;;;1691202;29;10253953;-94
2023/06/12 02:54:33;;;;;;;7.47;6.15;;;;;;;;;;2040124;29;20035;-94
2023/06/12 02:55:39;;;;;;;10.43;6.03;;;;;;;;;;2048888;29;20038;-94
2023/06/12 02:56:45;;;;;;;7.85;5.85;;;;;;;;;;2048762;29;20439;-94
2023/06/12 02:57:45;;;;;;;9.88;6.25;;;;;;;;;;2041420;29;20024;-94
2023/06/12 02:58:46;;;;;;;10.48;6.22;;;;;;;;;;2040597;29;20035;-94
2023/06/12 02:59:46;;;;;;;8.25;6.38;;;;;;;;;;2049198;29;20030;-94
2023/06/12 03:00:47;;;;;;;8.43;5.75;;;;;;;;;;2044558;29;20035;-91
2023/06/12 03:01:47;;;;;;;8.30;6.13;;;;;;;;;;2048641;29;20008;-90
2023/06/12 03:02:48;;;;;;;8.82;5.80;;;;;;;;;;2048254;29;20134;-92
2023/06/12 03:03:50;;;;;;;8.55;6.07;;;;;;;;;;2047519;29;20047;-92
2023/06/12 03:04:52;;;;;;;9.85;6.05;;;;;;;;;;2048184;29;20113;-93
2023/06/12 03:05:53;;;;;;;12.50;6.28;;;;;;;;;;2039988;29;20032;-93
2023/06/12 03:06:53;;;;;;;9.98;6.30;;;;;;;;;;2048538;29;20040;-93
2023/06/12 03:07:54;;;;;;;8.70;5.68;;;;;;;;;;2048808;29;20090;-93
2023/06/12 03:08:55;;;;;;;8.23;5.88;;;;;;;;;;2049074;29;20031;-93
2023/06/12 03:09:57;;;;;;;6.53;5.90;;;;;;;;;;2049217;28;20113;-93
2023/06/12 03:10:57;;;;;;;8.57;6.28;;;;;;;;;;2049145;28;20027;-93
2023/06/12 03:11:58;;;;;;;7.65;6.10;;;;;;;;;;2048698;29;20035;-93
2023/06/12 03:12:58;;;;;;;6.68;5.57;;;;;;;;;;2040512;29;20054;-92
2023/06/12 03:13:59;;;;;;;9.98;5.93;;;;;;;;;;2048666;29;20046;-93
2023/06/12 03:15:02;;;;;;;9.60;6.25;;;;;;;;;;2048351;29;20099;-92
2023/06/12 03:16:04;;;;;;;7.30;6.15;;;;;;;;;;2048330;29;20046;-92
2023/06/12 03:17:06;;;;;;;9.13;6.43;;;;;;;;;;2049557;28;20042;-93
2023/06/12 03:18:06;;;;;;;10.93;6.05;;;;;;;;;;2048564;29;20019;-93
2023/06/12 03:19:07;;;;;;;9.60;6.82;;;;;;;;;;2040713;29;20032;-94
2023/06/12 03:20:10;;;;;;;11.63;6.85;;;;;;;;;;2040975;29;20089;-93
2023/06/12 03:21:11;;;;;;;7.72;5.97;;;;;;;;;;2049500;28;20380;-92
2023/06/12 03:22:12;;;;;;;8.00;6.10;;;;;;;;;;2049311;28;20031;-93
2023/06/12 03:23:12;;;;;;;9.13;5.68;;;;;;;;;;2049290;28;20031;-93
2023/06/12 03:24:13;;;;;;;9.88;6.43;;;;;;;;;;2048752;29;20090;-93
2023/06/12 03:25:18;;;;;;;10.95;6.60;;;;;;;;;;2040753;29;20092;-94
2023/06/12 03:26:20;;;;;;;10.70;6.38;;;;;;;;;;2041439;29;20027;-94
2023/06/12 03:27:22;;;;;;;11.15;6.78;;;;;;;;;;2040744;29;20087;-93
2023/06/12 03:28:23;;;;;;;8.15;6.38;;;;;;;;;;2048576;29;20015;-93
2023/06/12 03:29:24;;;;;;;9.82;6.18;;;;;;;;;;2048480;29;20019;-94
2023/06/12 03:30:24;;;;;;;11.65;6.25;;;;;;;;;;2040628;29;20039;-93
2023/06/12 03:31:26;;;;;;;9.63;6.85;;;;;;;;;;2040316;29;20055;-93
2023/06/12 03:32:27;;;;;;;12.52;6.65;;;;;;;;;;2048457;29;20031;-94
2023/06/12 03:33:27;;;;;;;8.57;6.00;;;;;;;;;;2047987;29;20515;-93
2023/06/12 03:34:28;;;;;;;8.68;6.72;;;;;;;;;;2039905;29;20016;-92
2023/06/12 03:35:29;;;;;;;8.43;6.22;;;;;;;;;;2047765;29;20527;-93
2023/06/12 03:36:33;;;;;;;7.25;6.47;;;;;;;;;;2041793;29;20027;-93
2023/06/12 03:37:34;;;;;;;9.18;6.57;;;;;;;;;;2048027;29;20024;-93
2023/06/12 03:38:34;;;;;;;13.55;6.60;;;;;;;;;;2047882;29;20110;-93
2023/06/12 03:39:35;;;;;;;8.82;5.90;;;;;;;;;;2048008;29;20558;-94
2023/06/12 03:40:35;;;;;;;9.05;6.40;;;;;;;;;;2048491;29;20506;-92
2023/06/12 03:41:50;;;;;;;9.52;6.22;;;;;;;;;;2048233;29;20056;-94
2023/06/12 03:42:50;;;;;;;10.88;6.32;;;;;;;;;;2048165;29;20035;-93
2023/06/12 03:43:51;;;;;;;10.23;7.22;;;;;;;;;;2048818;28;20519;-93
2023/06/12 03:44:52;;;;;;;9.77;7.57;;;;;;;;;;2048985;28;20027;-93
2023/06/12 03:45:52;;;;;;;10.35;7.30;;;;;;;;;;2047759;29;20082;-93
2023/06/12 03:46:53;;;;;;;9.68;6.95;;;;;;;;;;2047899;29;20055;-94
2023/06/12 03:47:54;;;;;;;9.43;7.13;;;;;;;;;;2039965;29;20427;-93
2023/06/12 03:48:55;;;;;;;11.27;7.15;;;;;;;;;;2032312;29;20040;-94
2023/06/12 03:49:55;;;;;;;11.65;8.20;;;;;;;;;;2041892;29;20501;-93
2023/06/12 03:50:55;;;;;;;13.98;8.18;;;;;;;;;;2052859;28;20031;-92
2023/06/12 03:51:56;;;;;;;10.63;8.00;;;;;;;;;;2052247;28;20038;-93
2023/06/12 03:52:56;;;;;;;11.38;8.07;;;;;;;;;;2048234;29;20125;-93
2023/06/12 03:53:57;;;;;;;13.98;8.60;;;;;;;;;;2048202;29;20121;-93
2023/06/12 03:54:57;;;;;;;12.18;7.68;;;;;;;;;;2049121;29;20090;-93
2023/06/12 03:55:59;;;;;;;10.35;7.90;;;;;;;;;;2047991;29;20168;-94
2023/06/12 03:56:59;;;;;;;9.63;7.65;;;;;;;;;;2048034;29;20090;-93
2023/06/12 03:58:01;;;;;;;9.52;7.25;;;;;;;;;;2049175;28;20475;-93
2023/06/12 03:59:01;;;;;;;12.98;8.88;;;;;;;;;;2048940;28;20108;-93
2023/06/12 04:00:03;;;;;;;12.77;8.32;;;;;;;;;;2048952;28;20044;-93
2023/06/12 04:01:03;;;;;;;12.93;8.10;;;;;;;;;;2048999;28;20034;-93
2023/06/12 04:02:04;;;;;;;10.18;7.80;;;;;;;;;;2048403;29;20167;-93
2023/06/12 04:03:08;;;;;;;13.38;7.63;;;;;;;;;;2047989;29;20034;-93
2023/06/12 04:04:10;;;;;;;8.23;6.78;;;;;;;;;;2048879;28;20506;-93
2023/06/12 04:05:10;;;;;;;9.93;7.53;;;;;;;;;;2048565;28;20031;-92
2023/06/12 04:06:11;;;;;;;11.35;7.07;;;;;;;;;;2048434;28;20455;-93
2023/06/12 04:07:13;;;;;;;14.30;8.00;;;;;;;;;;2048263;28;20064;-93
2023/06/12 04:08:13;;;;;;;8.30;6.68;;;;;;;;;;2048408;29;20046;-92
2023/06/12 04:09:17;;;;;;;10.25;6.57;;;;;;;;;;2040593;29;20023;-92
2023/06/12 04:10:18;;;;;;;9.30;7.32;;;;;;;;;;2047989;29;20026;-92
2023/06/12 04:11:19;;;;;;;9.15;6.72;;;;;;;;;;2040771;29;20492;-92
2023/06/12 04:12:19;;;;;;;16.00;7.68;;;;;;;;;;2039988;29;20121;-93
2023/06/12 04:13:20;;;;;;;11.35;7.57;;;;;;;;;;2048057;29;20039;-92
2023/06/12 04:14:20;;;;;;;10.07;6.40;;;;;;;;;;2048239;29;20118;-93
2023/06/12 04:15:21;;;;;;;11.95;7.45;;;;;;;;;;2039753;29;20027;-91
2023/06/12 04:16:21;;;;;;;10.98;7.15;;;;;;;;;;2047735;29;20035;-92
2023/06/12 04:17:22;;;;;;;9.68;6.47;;;;;;;;;;2040493;29;20027;-92
2023/06/12 04:18:23;;;;;;;8.40;6.47;;;;;;;;;;2040121;29;20039;-93
2023/06/12 04:19:24;;;;;;;10.23;6.20;;;;;;;;;;2040437;29;20028;-93
2023/06/12 04:20:28;;;;;;;9.25;6.95;;;;;;;;;;2048411;29;20403;-93
2023/06/12 04:21:28;;;;;;;9.40;6.07;;;;;;;;;;2047933;29;20031;-93
2023/06/12 04:22:29;;;;;;;8.27;6.78;;;;;;;;;;1683606;29;10395361;-94
2023/06/12 04:23:31;;;;;;;8.40;6.82;;;;;;;;;;2047605;28;20058;-93
2023/06/12 04:24:33;;;;;;;9.95;6.60;;;;;;;;;;2039671;29;20028;-93
2023/06/12 04:25:35;;;;;;;9.38;6.60;;;;;;;;;;2047791;28;20479;-93
2023/06/12 04:26:36;;;;;;;11.40;6.30;;;;;;;;;;2047965;29;20484;-93
2023/06/12 04:27:36;;;;;;;11.27;6.35;;;;;;;;;;2039911;29;20079;-93
2023/06/12 04:28:37;;;;;;;8.57;7.00;;;;;;;;;;2047697;29;20506;-93
2023/06/12 04:29:38;;;;;;;9.55;6.70;;;;;;;;;;2048106;28;20039;-94
2023/06/12 04:30:41;;;;;;;10.98;6.90;;;;;;;;;;2048816;28;20030;-94
2023/06/12 04:31:42;;;;;;;10.23;6.53;;;;;;;;;;2048498;28;20476;-93
2023/06/12 04:32:42;;;;;;;11.38;6.75;;;;;;;;;;2047706;29;20130;-94
2023/06/12 04:33:42;;;;;;;9.85;6.20;;;;;;;;;;2039712;29;20027;-91
2023/06/12 04:34:45;;;;;;;9.02;5.68;;;;;;;;;;2047560;29;20566;-93
2023/06/12 04:35:46;;;;;;;7.85;6.13;;;;;;;;;;2048140;28;20027;-94
2023/06/12 04:36:47;;;;;;;6.50;5.32;;;;;;;;;;2048564;28;20046;-92
2023/06/12 04:37:52;;;;;;;8.23;5.85;;;;;;;;;;2048361;28;20055;-95
2023/06/12 04:38:52;;;;;;;8.43;5.57;;;;;;;;;;2048262;29;20046;-92
2023/06/12 04:39:53;;;;;;;6.65;4.90;;;;;;;;;;2053354;29;20027;-90
2023/06/12 04:40:54;;;;;;;8.07;5.43;;;;;;;;;;2055275;29;20031;-91
2023/06/12 04:41:56;;;;;;;7.10;5.82;;;;;;;;;;2039902;29;20110;-93
2023/06/12 04:42:57;;;;;;;8.02;4.93;;;;;;;;;;2047621;29;20357;-94
2023/06/12 04:44:03;;;;;;;7.07;4.53;;;;;;;;;;2047631;29;20160;-92
2023/06/12 04:45:08;;;;;;;8.75;4.80;;;;;;;;;;2050637;28;20031;-92
2023/06/12 04:46:08;;;;;;;9.68;5.03;;;;;;;;;;2047826;29;20043;-94
2023/06/12 04:47:10;;;;;;;8.90;4.90;;;;;;;;;;2040095;29;20507;-94
2023/06/12 04:48:12;;;;;;;8.55;4.57;;;;;;;;;;2039890;29;20028;-95
2023/06/12 04:49:13;;;;;;;7.97;4.45;;;;;;;;;;2040165;29;20039;-95
2023/06/12 04:50:13;;;;;;;8.02;5.03;;;;;;;;;;2047797;29;20035;-93
2023/06/12 04:51:14;;;;;;;5.40;4.68;;;;;;;;;;2040136;29;20019;-93
2023/06/12 04:52:14;;;;;;;8.98;5.25;;;;;;;;;;2048052;29;20094;-93
2023/06/12 04:53:17;;;;;;;8.38;5.65;;;;;;;;;;2058074;28;20011;-93
2023/06/12 04:54:19;;;;;;;8.25;4.85;;;;;;;;;;2058071;28;20041;-94
2023/06/12 04:55:22;;;;;;;8.18;4.60;;;;;;;;;;2057124;28;20011;-93
2023/06/12 04:56:23;;;;;;;10.73;5.95;;;;;;;;;;2057401;28;20019;-94
2023/06/12 04:57:23;;;;;;;7.35;4.88;;;;;;;;;;2057369;29;20026;-94
2023/06/12 04:58:24;;;;;;;10.15;4.82;;;;;;;;;;2054174;29;20511;-93
2023/06/12 04:59:24;;;;;;;7.57;5.22;;;;;;;;;;2048489;29;20023;-93
2023/06/12 05:00:25;;;;;;;5.88;4.57;;;;;;;;;;2047792;29;20030;-94
2023/06/12 05:01:26;;;;;;;8.60;5.22;;;;;;;;;;2039933;29;20027;-95
2023/06/12 05:02:26;;;;;;;9.30;4.93;;;;;;;;;;2039885;29;20051;-94
2023/06/12 05:03:27;;;;;;;11.38;5.10;;;;;;;;;;2048615;29;20507;-93
2023/06/12 05:04:27;;;;;;;6.68;5.40;;;;;;;;;;2049721;29;20396;-94
2023/06/12 05:05:27;;;;;;;7.22;5.35;;;;;;;;;;2049832;29;20471;-94
2023/06/12 05:06:28;;;;;;;6.50;4.90;;;;;;;;;;2051475;29;20376;-94
2023/06/12 05:07:28;;;;;;;6.03;4.70;;;;;;;;;;2041948;29;20184;-95
2023/06/12 05:08:29;;;;;;;8.13;4.85;;;;;;;;;;2041628;29;20027;-95
2023/06/12 05:09:29;;;;;;;9.13;5.35;;;;;;;;;;2041633;29;20472;-94
2023/06/12 05:10:31;;;;;;;5.47;4.50;;;;;;;;;;2048980;29;20028;-94
2023/06/12 05:11:31;;;;;;;5.30;4.80;;;;;;;;;;2051128;28;20023;-95
2023/06/12 05:12:32;;;;;;;;;;;;;;;;;;1705193;28;10336046;-94
2023/06/12 05:13:32;;;;;;;6.63;4.38;;;;;;;;;;2059956;28;19922;-94
2023/06/12 05:14:34;;;;;;;8.65;5.53;;;;;;;;;;2051813;29;20015;-94
2023/06/12 05:15:35;;;;;;;5.60;5.03;;;;;;;;;;2050646;29;20044;-94
2023/06/12 05:16:35;;;;;;;9.10;5.18;;;;;;;;;;2049547;29;20027;-93
2023/06/12 05:17:37;;;;;;;5.80;4.95;;;;;;;;;;2045860;29;20066;-95
2023/06/12 05:18:37;;;;;;;8.65;5.00;;;;;;;;;;2049531;28;20046;-94
2023/06/12 05:19:41;;;;;;;8.25;4.60;;;;;;;;;;2049721;28;20038;-94
2023/06/12 05:20:41;;;;;;;6.88;4.45;;;;;;;;;;2041784;29;20035;-94
2023/06/12 05:21:43;;;;;;;5.70;4.50;;;;;;;;;;2049480;29;20094;-95
2023/06/12 05:22:43;;;;;;;6.38;4.18;;;;;;;;;;2049259;29;20125;-95
2023/06/12 05:23:43;;;;;;;6.22;4.40;;;;;;;;;;2041312;29;20408;-94
2023/06/12 05:24:44;;;;;;;6.53;5.28;;;;;;;;;;2049462;29;20066;-94
2023/06/12 05:25:44;;;;;;;6.55;4.05;;;;;;;;;;2050118;29;20072;-95
2023/06/12 05:26:45;;;;;;;6.05;4.20;;;;;;;;;;2050246;28;20031;-94
2023/06/12 05:27:45;;;;;;;5.65;4.30;;;;;;;;;;2050219;28;20511;-96
2023/06/12 05:28:46;;;;;;;5.55;4.20;;;;;;;;;;2053656;28;20019;-95
2023/06/12 05:29:46;;;;;;;5.75;4.50;;;;;;;;;;2056743;29;20031;-92
2023/06/12 05:30:47;;;;;;;6.53;4.97;;;;;;;;;;2045494;29;20146;-94
2023/06/12 05:31:48;;;;;;;5.57;4.13;;;;;;;;;;2041556;29;20098;-95
2023/06/12 05:32:49;;;;;;;5.70;4.13;;;;;;;;;;2049350;29;20027;-94
2023/06/12 05:33:49;;;;;;;5.28;4.78;;;;;;;;;;2041421;29;20083;-94
2023/06/12 05:34:50;;;;;;;6.60;4.75;;;;;;;;;;2041351;29;20062;-94
2023/06/12 05:35:51;;;;;;;7.38;5.60;;;;;;;;;;2041323;29;20034;-94
2023/06/12 05:36:51;;;;;;;6.78;4.63;;;;;;;;;;2040980;29;20078;-93
2023/06/12 05:37:51;;;;;;;6.60;4.60;;;;;;;;;;2049402;29;20033;-94
2023/06/12 05:38:52;;;;;;;5.13;4.60;;;;;;;;;;2049200;29;20124;-94
2023/06/12 05:39:53;;;;;;;4.60;4.20;;;;;;;;;;2041386;29;20587;-96
2023/06/12 05:40:54;;;;;;;4.45;4.05;;;;;;;;;;2041968;29;20086;-95
2023/06/12 05:41:54;;;;;;;6.50;4.18;;;;;;;;;;2050433;29;20042;-95
2023/06/12 05:42:59;;;;;;;4.90;3.58;;;;;;;;;;2049517;29;20058;-93
2023/06/12 05:44:12;;;;;;;;;;;;;;;;;;;;;
2023/06/12 05:45:39;;;;;;;5.93;4.20;;;;;;;;;;2049547;28;20566;-93
2023/06/12 05:46:40;;;;;;;4.32;3.75;;;;;;;;;;2052970;28;20027;-96
2023/06/12 05:47:40;;;;;;;5.88;4.03;;;;;;;;;;2049368;29;20515;-94
2023/06/12 05:48:41;;;;;;;6.13;4.32;;;;;;;;;;2049326;29;20494;-95
2023/06/12 05:49:44;;;;;;;10.52;4.60;;;;;;;;;;1802595;28;10474980;-95
2023/06/12 05:50:45;;;;;;;7.93;5.00;;;;;;;;;;2049836;28;20558;-95
2023/06/12 05:51:45;;;;;;;4.75;3.88;;;;;;;;;;2047540;28;20027;-93
2023/06/12 05:52:46;;;;;;;9.93;4.00;;;;;;;;;;2048089;29;20027;-89
2023/06/12 05:53:47;;;;;;;6.20;3.90;;;;;;;;;;2047610;29;20034;-89
2023/06/12 05:54:48;;;;;;;8.80;4.22;;;;;;;;;;2048034;29;20042;-91
2023/06/12 05:55:48;;;;;;;5.13;4.10;;;;;;;;;;2048541;28;20027;-91
2023/06/12 05:56:48;;;;;;;4.28;3.88;;;;;;;;;;2048475;28;20440;-89
2023/06/12 05:57:51;;;;;;;7.07;4.60;;;;;;;;;;2047466;29;20081;-90
2023/06/12 05:58:51;;;;;;;4.60;4.20;;;;;;;;;;2047823;29;20107;-90
2023/06/12 05:59:52;;;;;;;7.22;4.25;;;;;;;;;;2048134;29;20495;-91
2023/06/12 06:00:55;;;;;;;6.70;4.28;;;;;;;;;;2049185;29;20023;-89
2023/06/12 06:01:58;;;;;;;6.00;3.85;;;;;;;;;;2049580;28;20077;-91
2023/06/12 06:03:00;;;;;;;6.72;4.68;;;;;;;;;;2049725;28;20025;-89
2023/06/12 06:04:00;;;;;;;8.52;4.60;;;;;;;;;;2049413;28;20110;-90
2023/06/12 06:05:01;;;;;;;4.75;3.85;;;;;;;;;;2049661;28;20024;-90
2023/06/12 06:06:02;;;;;;;5.65;4.28;;;;;;;;;;2048778;29;20482;-90
2023/06/12 06:07:11;;;;;;;5.03;4.20;;;;;;;;;;1784600;28;10427961;-93
2023/06/12 06:08:12;;;;;;;6.15;3.88;;;;;;;;;;2048577;29;20260;-95
2023/06/12 06:09:16;;;;;;;5.40;4.03;;;;;;;;;;2050003;29;20420;-95
2023/06/12 06:10:16;;;;;;;6.25;4.38;;;;;;;;;;2049427;29;20110;-95
2023/06/12 06:11:44;;;;;;;;;;;;;;;;;;;;;